sensor_id;sensor_type;location;lat;lon;timestamp;pressure;altitude;pressure_sealevel;temperature;humidity
76547;BME280;65390;53.014;8.886;2022-12-29T00:01:51;100011.25;;;8.69;100.00
76547;BME280;65390;53.014;8.886;2022-12-29T00:04:17;99990.63;;;8.71;100.00
76547;BME280;65390;53.014;8.886;2022-12-29T00:06:43;99983.34;;;8.61;100.00
76547;BME280;65390;53.014;8.886;2022-12-29T00:09:10;99995.84;;;8.73;100.00
76547;BME280;65390;53.014;8.886;2022-12-29T00:11:36;99967.03;;;8.65;100.00
76547;BME280;65390;53.014;8.886;2022-12-29T00:14:02;99973.63;;;8.72;100.00
76547;BME280;65390;53.014;8.886;2022-12-29T00:16:46;99981.97;;;8.81;100.00
76547;BME280;65390;53.014;8.886;2022-12-29T00:19:11;99970.63;;;8.77;100.00
76547;BME280;65390;53.014;8.886;2022-12-29T00:21:56;99959.75;;;8.80;100.00
76547;BME280;65390;53.014;8.886;2022-12-29T00:24:40;99947.97;;;8.83;100.00
76547;BME280;65390;53.014;8.886;2022-12-29T00:27:28;99968.66;;;8.92;100.00
76547;BME280;65390;53.014;8.886;2022-12-29T00:30:14;99982.13;;;9.03;100.00
76547;BME280;65390;53.014;8.886;2022-12-29T00:32:59;99983.47;;;9.08;100.00
76547;BME280;65390;53.014;8.886;2022-12-29T00:35:56;99950.28;;;9.00;100.00
76547;BME280;65390;53.014;8.886;2022-12-29T00:38:23;99969.56;;;9.16;100.00
76547;BME280;65390;53.014;8.886;2022-12-29T00:41:15;99932.53;;;8.99;100.00
76547;BME280;65390;53.014;8.886;2022-12-29T00:43:58;99949.69;;;9.07;100.00
76547;BME280;65390;53.014;8.886;2022-12-29T00:46:30;99944.94;;;9.00;100.00
76547;BME280;65390;53.014;8.886;2022-12-29T00:48:55;99947.66;;;9.11;100.00
76547;BME280;65390;53.014;8.886;2022-12-29T00:51:39;99957.81;;;9.19;100.00
76547;BME280;65390;53.014;8.886;2022-12-29T00:54:05;99947.72;;;9.22;100.00
76547;BME280;65390;53.014;8.886;2022-12-29T00:56:30;99951.25;;;9.23;100.00
76547;BME280;65390;53.014;8.886;2022-12-29T00:59:00;99942.63;;;9.19;100.00
76547;BME280;65390;53.014;8.886;2022-12-29T01:01:25;99940.69;;;9.21;100.00
76547;BME280;65390;53.014;8.886;2022-12-29T01:03:50;99926.81;;;9.16;100.00
76547;BME280;65390;53.014;8.886;2022-12-29T01:06:16;99926.22;;;9.24;100.00
76547;BME280;65390;53.014;8.886;2022-12-29T01:08:41;99900.50;;;9.10;100.00
76547;BME280;65390;53.014;8.886;2022-12-29T01:11:08;99921.97;;;9.21;100.00
76547;BME280;65390;53.014;8.886;2022-12-29T01:13:35;99920.75;;;9.25;100.00
76547;BME280;65390;53.014;8.886;2022-12-29T01:16:00;99925.53;;;9.33;100.00
76547;BME280;65390;53.014;8.886;2022-12-29T01:18:26;99924.47;;;9.35;100.00
76547;BME280;65390;53.014;8.886;2022-12-29T01:21:05;99934.81;;;9.40;100.00
76547;BME280;65390;53.014;8.886;2022-12-29T01:23:31;99906.41;;;9.26;100.00
76547;BME280;65390;53.014;8.886;2022-12-29T01:25:57;99906.31;;;9.28;100.00
76547;BME280;65390;53.014;8.886;2022-12-29T01:28:23;99913.00;;;9.33;100.00
76547;BME280;65390;53.014;8.886;2022-12-29T01:30:48;99933.72;;;9.43;100.00
76547;BME280;65390;53.014;8.886;2022-12-29T01:33:14;99902.09;;;9.36;100.00
76547;BME280;65390;53.014;8.886;2022-12-29T01:35:40;99906.38;;;9.39;100.00
76547;BME280;65390;53.014;8.886;2022-12-29T01:38:05;99908.63;;;9.32;100.00
76547;BME280;65390;53.014;8.886;2022-12-29T01:40:31;99905.97;;;9.32;100.00
76547;BME280;65390;53.014;8.886;2022-12-29T01:42:56;99900.84;;;9.29;100.00
76547;BME280;65390;53.014;8.886;2022-12-29T01:45:22;99866.19;;;9.17;100.00
76547;BME280;65390;53.014;8.886;2022-12-29T01:47:50;99885.13;;;9.49;100.00
76547;BME280;65390;53.014;8.886;2022-12-29T01:50:22;99898.78;;;9.57;100.00
76547;BME280;65390;53.014;8.886;2022-12-29T01:52:56;99908.75;;;9.55;100.00
76547;BME280;65390;53.014;8.886;2022-12-29T01:55:24;99866.63;;;9.46;100.00
76547;BME280;65390;53.014;8.886;2022-12-29T01:57:52;99867.13;;;9.51;100.00
76547;BME280;65390;53.014;8.886;2022-12-29T02:00:19;99884.53;;;9.56;100.00
76547;BME280;65390;53.014;8.886;2022-12-29T02:02:48;99879.94;;;9.58;100.00
76547;BME280;65390;53.014;8.886;2022-12-29T02:05:24;99870.19;;;9.57;100.00
76547;BME280;65390;53.014;8.886;2022-12-29T02:07:52;99852.16;;;9.48;100.00
76547;BME280;65390;53.014;8.886;2022-12-29T02:10:23;99883.72;;;9.67;100.00
76547;BME280;65390;53.014;8.886;2022-12-29T02:12:50;99851.00;;;9.52;100.00
76547;BME280;65390;53.014;8.886;2022-12-29T02:15:16;99851.47;;;9.57;100.00
76547;BME280;65390;53.014;8.886;2022-12-29T02:36:37;99835.34;;;9.81;100.00
76547;BME280;65390;53.014;8.886;2022-12-29T02:46:53;99819.91;;;9.74;100.00
76547;BME280;65390;53.014;8.886;2022-12-29T02:49:27;99840.69;;;9.81;100.00
76547;BME280;65390;53.014;8.886;2022-12-29T02:52:01;99851.16;;;9.95;100.00
76547;BME280;65390;53.014;8.886;2022-12-29T02:54:28;99848.50;;;9.95;100.00
76547;BME280;65390;53.014;8.886;2022-12-29T03:00:08;99827.78;;;9.86;100.00
76547;BME280;65390;53.014;8.886;2022-12-29T03:08:35;99829.13;;;10.03;100.00
76547;BME280;65390;53.014;8.886;2022-12-29T03:11:08;99825.50;;;10.04;100.00
76547;BME280;65390;53.014;8.886;2022-12-29T03:14:02;99772.97;;;9.92;100.00
76547;BME280;65390;53.014;8.886;2022-12-29T03:16:57;99778.03;;;9.84;100.00
76547;BME280;65390;53.014;8.886;2022-12-29T03:19:31;99798.63;;;9.94;100.00
76547;BME280;65390;53.014;8.886;2022-12-29T03:22:01;99784.50;;;9.81;100.00
76547;BME280;65390;53.014;8.886;2022-12-29T03:24:49;99798.13;;;9.89;100.00
76547;BME280;65390;53.014;8.886;2022-12-29T03:27:22;99799.72;;;9.92;100.00
76547;BME280;65390;53.014;8.886;2022-12-29T03:29:54;99797.03;;;9.92;100.00
76547;BME280;65390;53.014;8.886;2022-12-29T03:32:26;99775.38;;;9.84;100.00
76547;BME280;65390;53.014;8.886;2022-12-29T03:34:54;99807.38;;;9.96;100.00
76547;BME280;65390;53.014;8.886;2022-12-29T03:37:23;99761.50;;;9.79;100.00
76547;BME280;65390;53.014;8.886;2022-12-29T03:39:49;99752.75;;;9.77;100.00
76547;BME280;65390;53.014;8.886;2022-12-29T03:42:17;99777.06;;;9.85;100.00
76547;BME280;65390;53.014;8.886;2022-12-29T03:44:45;99764.06;;;9.80;100.00
76547;BME280;65390;53.014;8.886;2022-12-29T03:47:12;99764.06;;;9.80;100.00
76547;BME280;65390;53.014;8.886;2022-12-29T03:49:38;99768.44;;;9.81;100.00
76547;BME280;65390;53.014;8.886;2022-12-29T03:52:04;99750.81;;;9.67;100.00
76547;BME280;65390;53.014;8.886;2022-12-29T03:54:30;99765.66;;;9.72;100.00
76547;BME280;65390;53.014;8.886;2022-12-29T03:56:55;99752.03;;;9.63;100.00
76547;BME280;65390;53.014;8.886;2022-12-29T03:59:21;99769.91;;;9.74;100.00
76547;BME280;65390;53.014;8.886;2022-12-29T04:01:46;99760.06;;;9.75;100.00
76547;BME280;65390;53.014;8.886;2022-12-29T04:04:12;99734.28;;;9.62;100.00
76547;BME280;65390;53.014;8.886;2022-12-29T04:06:37;99751.44;;;9.71;100.00
76547;BME280;65390;53.014;8.886;2022-12-29T04:09:02;99739.38;;;9.65;100.00
76547;BME280;65390;53.014;8.886;2022-12-29T04:11:28;99770.63;;;9.76;100.00
76547;BME280;65390;53.014;8.886;2022-12-29T04:13:56;99739.75;;;9.61;100.00
76547;BME280;65390;53.014;8.886;2022-12-29T04:16:21;99745.09;;;9.61;100.00
76547;BME280;65390;53.014;8.886;2022-12-29T04:18:47;99735.38;;;9.60;100.00
76547;BME280;65390;53.014;8.886;2022-12-29T04:21:12;99743.38;;;9.60;100.00
76547;BME280;65390;53.014;8.886;2022-12-29T04:23:38;99727.44;;;9.47;100.00
76547;BME280;65390;53.014;8.886;2022-12-29T04:26:05;99729.66;;;9.53;100.00
76547;BME280;65390;53.014;8.886;2022-12-29T04:28:34;99721.28;;;9.58;100.00
76547;BME280;65390;53.014;8.886;2022-12-29T04:31:00;99706.44;;;9.54;100.00
76547;BME280;65390;53.014;8.886;2022-12-29T04:33:26;99727.22;;;9.61;100.00
76547;BME280;65390;53.014;8.886;2022-12-29T04:35:51;99723.56;;;9.62;100.00
76547;BME280;65390;53.014;8.886;2022-12-29T04:38:20;99724.16;;;9.66;100.00
76547;BME280;65390;53.014;8.886;2022-12-29T04:40:46;99725.75;;;9.68;100.00
76547;BME280;65390;53.014;8.886;2022-12-29T04:43:12;99732.59;;;9.73;100.00
76547;BME280;65390;53.014;8.886;2022-12-29T04:45:42;99720.78;;;9.75;100.00
76547;BME280;65390;53.014;8.886;2022-12-29T04:48:08;99738.16;;;9.92;100.00
76547;BME280;65390;53.014;8.886;2022-12-29T04:50:33;99749.22;;;9.87;100.00
76547;BME280;65390;53.014;8.886;2022-12-29T04:52:58;99729.03;;;9.83;100.00
76547;BME280;65390;53.014;8.886;2022-12-29T04:55:24;99766.50;;;10.06;100.00
76547;BME280;65390;53.014;8.886;2022-12-29T04:57:49;99723.94;;;9.91;100.00
76547;BME280;65390;53.014;8.886;2022-12-29T05:00:14;99736.09;;;10.07;100.00
76547;BME280;65390;53.014;8.886;2022-12-29T05:02:40;99738.75;;;9.95;100.00
76547;BME280;65390;53.014;8.886;2022-12-29T05:05:06;99711.28;;;9.82;100.00
76547;BME280;65390;53.014;8.886;2022-12-29T05:07:31;99748.50;;;9.96;100.00
76547;BME280;65390;53.014;8.886;2022-12-29T05:09:58;99725.38;;;9.84;100.00
76547;BME280;65390;53.014;8.886;2022-12-29T05:12:24;99731.38;;;9.88;100.00
76547;BME280;65390;53.014;8.886;2022-12-29T05:14:49;99726.59;;;9.80;100.00
76547;BME280;65390;53.014;8.886;2022-12-29T05:17:14;99722.97;;;9.70;100.00
76547;BME280;65390;53.014;8.886;2022-12-29T05:19:40;99715.44;;;9.75;100.00
76547;BME280;65390;53.014;8.886;2022-12-29T05:22:08;99707.41;;;9.75;100.00
76547;BME280;65390;53.014;8.886;2022-12-29T05:24:33;99698.78;;;9.72;100.00
76547;BME280;65390;53.014;8.886;2022-12-29T05:26:58;99696.09;;;9.72;100.00
76547;BME280;65390;53.014;8.886;2022-12-29T05:29:24;99709.69;;;9.80;100.00
76547;BME280;65390;53.014;8.886;2022-12-29T05:31:49;99688.31;;;9.80;100.00
76547;BME280;65390;53.014;8.886;2022-12-29T05:34:14;99756.66;;;10.06;100.00
76547;BME280;65390;53.014;8.886;2022-12-29T05:36:40;99747.53;;;10.09;100.00
76547;BME280;65390;53.014;8.886;2022-12-29T05:39:05;99719.91;;;10.08;100.00
76547;BME280;65390;53.014;8.886;2022-12-29T05:41:33;99740.94;;;10.02;100.00
76547;BME280;65390;53.014;8.886;2022-12-29T05:43:59;99758.19;;;10.20;100.00
76547;BME280;65390;53.014;8.886;2022-12-29T05:46:25;99772.19;;;10.35;100.00
76547;BME280;65390;53.014;8.886;2022-12-29T05:48:50;99739.75;;;9.94;100.00
76547;BME280;65390;53.014;8.886;2022-12-29T05:51:16;99754.19;;;10.14;100.00
76547;BME280;65390;53.014;8.886;2022-12-29T05:53:41;99728.66;;;9.99;100.00
76547;BME280;65390;53.014;8.886;2022-12-29T05:56:06;99720.38;;;10.02;100.00
76547;BME280;65390;53.014;8.886;2022-12-29T05:58:32;99730.22;;;10.02;100.00
76547;BME280;65390;53.014;8.886;2022-12-29T06:00:57;99755.16;;;10.13;100.00
76547;BME280;65390;53.014;8.886;2022-12-29T06:03:23;99714.69;;;10.07;100.00
76547;BME280;65390;53.014;8.886;2022-12-29T06:05:48;99710.50;;;10.14;100.00
76547;BME280;65390;53.014;8.886;2022-12-29T06:08:14;99714.03;;;10.14;100.00
76547;BME280;65390;53.014;8.886;2022-12-29T06:10:39;99701.03;;;10.10;100.00
76547;BME280;65390;53.014;8.886;2022-12-29T06:13:05;99708.56;;;10.16;100.00
76547;BME280;65390;53.014;8.886;2022-12-29T06:15:32;99714.75;;;10.05;100.00
76547;BME280;65390;53.014;8.886;2022-12-29T06:17:57;99721.47;;;10.22;100.00
76547;BME280;65390;53.014;8.886;2022-12-29T06:20:22;99703.84;;;10.08;100.00
76547;BME280;65390;53.014;8.886;2022-12-29T06:22:48;99718.91;;;10.09;100.00
76547;BME280;65390;53.014;8.886;2022-12-29T06:25:14;99700.56;;;9.93;100.00
76547;BME280;65390;53.014;8.886;2022-12-29T06:27:40;99714.22;;;9.90;100.00
76547;BME280;65390;53.014;8.886;2022-12-29T06:30:06;99700.69;;;9.81;100.00
76547;BME280;65390;53.014;8.886;2022-12-29T06:32:32;99721.84;;;9.95;100.00
76547;BME280;65390;53.014;8.886;2022-12-29T06:34:57;99711.28;;;9.82;100.00
76547;BME280;65390;53.014;8.886;2022-12-29T06:37:23;99722.56;;;9.86;100.00
76547;BME280;65390;53.014;8.886;2022-12-29T06:39:48;99725.03;;;9.89;100.00
76547;BME280;65390;53.014;8.886;2022-12-29T06:42:13;99728.19;;;9.83;100.00
76547;BME280;65390;53.014;8.886;2022-12-29T06:44:39;99706.69;;;9.73;100.00
76547;BME280;65390;53.014;8.886;2022-12-29T06:47:04;99726.09;;;9.86;100.00
76547;BME280;65390;53.014;8.886;2022-12-29T06:49:29;99736.81;;;9.86;100.00
76547;BME280;65390;53.014;8.886;2022-12-29T06:51:55;99732.34;;;9.76;100.00
76547;BME280;65390;53.014;8.886;2022-12-29T06:54:20;99720.91;;;9.74;100.00
76547;BME280;65390;53.014;8.886;2022-12-29T06:56:45;99731.34;;;9.65;100.00
76547;BME280;65390;53.014;8.886;2022-12-29T06:59:11;99725.53;;;9.60;100.00
76547;BME280;65390;53.014;8.886;2022-12-29T07:01:36;99750.06;;;9.65;100.00
76547;BME280;65390;53.014;8.886;2022-12-29T07:04:03;99694.50;;;9.47;100.00
76547;BME280;65390;53.014;8.886;2022-12-29T07:06:28;99746.78;;;9.62;100.00
76547;BME280;65390;53.014;8.886;2022-12-29T07:08:54;99757.88;;;9.57;100.00
76547;BME280;65390;53.014;8.886;2022-12-29T07:11:20;99731.94;;;9.47;100.00
76547;BME280;65390;53.014;8.886;2022-12-29T07:13:46;99744.97;;;9.40;100.00
76547;BME280;65390;53.014;8.886;2022-12-29T07:16:11;99741.09;;;9.55;100.00
76547;BME280;65390;53.014;8.886;2022-12-29T07:18:37;99745.91;;;9.50;100.00
76547;BME280;65390;53.014;8.886;2022-12-29T07:21:03;99751.53;;;9.47;100.00
76547;BME280;65390;53.014;8.886;2022-12-29T07:23:28;99768.16;;;9.51;100.00
76547;BME280;65390;53.014;8.886;2022-12-29T07:26:01;99768.91;;;9.42;100.00
76547;BME280;65390;53.014;8.886;2022-12-29T07:28:27;99787.66;;;9.53;100.00
76547;BME280;65390;53.014;8.886;2022-12-29T07:30:52;99769.25;;;9.37;100.00
76547;BME280;65390;53.014;8.886;2022-12-29T07:33:18;99762.44;;;9.33;100.00
76547;BME280;65390;53.014;8.886;2022-12-29T07:35:43;99787.59;;;9.30;100.00
76547;BME280;65390;53.014;8.886;2022-12-29T07:38:08;99808.03;;;9.43;100.00
76547;BME280;65390;53.014;8.886;2022-12-29T07:40:34;99790.25;;;9.30;100.00
76547;BME280;65390;53.014;8.886;2022-12-29T07:42:59;99807.44;;;9.39;100.00
76547;BME280;65390;53.014;8.886;2022-12-29T07:45:24;99801.81;;;9.31;100.00
76547;BME280;65390;53.014;8.886;2022-12-29T07:47:50;99800.22;;;9.28;100.00
76547;BME280;65390;53.014;8.886;2022-12-29T07:50:15;99812.78;;;9.39;100.00
76547;BME280;65390;53.014;8.886;2022-12-29T07:52:41;99804.03;;;9.37;100.00
76547;BME280;65390;53.014;8.886;2022-12-29T07:55:06;99803.28;;;9.35;100.00
76547;BME280;65390;53.014;8.886;2022-12-29T07:57:32;99818.84;;;9.41;100.00
76547;BME280;65390;53.014;8.886;2022-12-29T07:59:57;99804.16;;;9.35;100.00
76547;BME280;65390;53.014;8.886;2022-12-29T08:02:23;99829.31;;;9.44;100.00
76547;BME280;65390;53.014;8.886;2022-12-29T08:04:48;99832.72;;;9.46;100.00
76547;BME280;65390;53.014;8.886;2022-12-29T08:07:13;99839.75;;;9.36;100.00
76547;BME280;65390;53.014;8.886;2022-12-29T08:09:39;99834.97;;;9.28;100.00
76547;BME280;65390;53.014;8.886;2022-12-29T08:12:04;99839.34;;;9.29;100.00
76547;BME280;65390;53.014;8.886;2022-12-29T08:14:30;99826.94;;;9.17;100.00
76547;BME280;65390;53.014;8.886;2022-12-29T08:16:55;99827.25;;;9.13;100.00
76547;BME280;65390;53.014;8.886;2022-12-29T08:19:20;99824.44;;;9.03;100.00
76547;BME280;65390;53.014;8.886;2022-12-29T08:21:46;99833.34;;;9.15;100.00
76547;BME280;65390;53.014;8.886;2022-12-29T08:24:11;99842.97;;;9.17;100.00
76547;BME280;65390;53.014;8.886;2022-12-29T08:26:36;99843.53;;;9.09;100.00
76547;BME280;65390;53.014;8.886;2022-12-29T08:29:02;99878.47;;;9.19;100.00
76547;BME280;65390;53.014;8.886;2022-12-29T08:31:27;99874.19;;;9.17;100.00
76547;BME280;65390;53.014;8.886;2022-12-29T08:33:55;99869.81;;;9.16;100.00
76547;BME280;65390;53.014;8.886;2022-12-29T08:36:20;99854.97;;;9.12;100.00
76547;BME280;65390;53.014;8.886;2022-12-29T08:38:46;99870.75;;;9.15;100.00
76547;BME280;65390;53.014;8.886;2022-12-29T08:41:11;99866.06;;;9.18;100.00
76547;BME280;65390;53.014;8.886;2022-12-29T08:43:36;99870.19;;;9.22;100.00
76547;BME280;65390;53.014;8.886;2022-12-29T08:46:02;99888.75;;;9.36;100.00
76547;BME280;65390;53.014;8.886;2022-12-29T08:48:27;99880.91;;;9.22;100.00
76547;BME280;65390;53.014;8.886;2022-12-29T08:50:53;99873.09;;;9.19;100.00
76547;BME280;65390;53.014;8.886;2022-12-29T08:53:19;99887.72;;;9.26;100.00
76547;BME280;65390;53.014;8.886;2022-12-29T08:55:53;99871.19;;;9.32;100.00
76547;BME280;65390;53.014;8.886;2022-12-29T08:58:19;99856.22;;;9.54;100.00
76547;BME280;65390;53.014;8.886;2022-12-29T09:00:44;99876.56;;;9.79;100.00
76547;BME280;65390;53.014;8.886;2022-12-29T09:03:10;99873.69;;;9.93;100.00
76547;BME280;65390;53.014;8.886;2022-12-29T09:05:35;99900.94;;;9.98;100.00
76547;BME280;65390;53.014;8.886;2022-12-29T09:08:00;99879.16;;;10.03;100.00
76547;BME280;65390;53.014;8.886;2022-12-29T09:10:26;99886.81;;;10.18;100.00
76547;BME280;65390;53.014;8.886;2022-12-29T09:12:51;99875.31;;;10.29;100.00
76547;BME280;65390;53.014;8.886;2022-12-29T09:15:16;99880.78;;;10.27;100.00
76547;BME280;65390;53.014;8.886;2022-12-29T09:17:42;99884.31;;;10.28;100.00
76547;BME280;65390;53.014;8.886;2022-12-29T09:20:16;99920.22;;;10.48;100.00
76547;BME280;65390;53.014;8.886;2022-12-29T09:22:42;99881.78;;;10.26;100.00
76547;BME280;65390;53.014;8.886;2022-12-29T09:25:08;99895.50;;;10.33;100.00
76547;BME280;65390;53.014;8.886;2022-12-29T09:27:34;99891.00;;;10.22;100.00
76547;BME280;65390;53.014;8.886;2022-12-29T09:30:00;99919.59;;;10.22;100.00
76547;BME280;65390;53.014;8.886;2022-12-29T09:32:25;99886.97;;;10.06;100.00
76547;BME280;65390;53.014;8.886;2022-12-29T09:34:50;99892.06;;;10.20;100.00
76547;BME280;65390;53.014;8.886;2022-12-29T09:37:16;99890.00;;;10.12;100.00
76547;BME280;65390;53.014;8.886;2022-12-29T09:39:41;99897.41;;;9.97;100.00
76547;BME280;65390;53.014;8.886;2022-12-29T09:42:14;99893.50;;;10.02;100.00
76547;BME280;65390;53.014;8.886;2022-12-29T09:44:48;99925.81;;;10.22;100.00
76547;BME280;65390;53.014;8.886;2022-12-29T09:47:16;99907.69;;;10.26;100.00
76547;BME280;65390;53.014;8.886;2022-12-29T09:49:47;99899.84;;;10.12;100.00
76547;BME280;65390;53.014;8.886;2022-12-29T09:52:46;99925.81;;;10.34;100.00
76547;BME280;65390;53.014;8.886;2022-12-29T09:55:20;99913.09;;;10.02;100.00
76547;BME280;65390;53.014;8.886;2022-12-29T09:58:32;99932.31;;;9.96;100.00
76547;BME280;65390;53.014;8.886;2022-12-29T10:00:46;99906.72;;;9.69;100.00
76547;BME280;65390;53.014;8.886;2022-12-29T10:03:18;99931.72;;;9.57;100.00
76547;BME280;65390;53.014;8.886;2022-12-29T10:05:52;99943.38;;;9.56;100.00
76547;BME280;65390;53.014;8.886;2022-12-29T10:08:29;99944.66;;;9.39;100.00
76547;BME280;65390;53.014;8.886;2022-12-29T10:14:03;99937.97;;;9.45;100.00
76547;BME280;65390;53.014;8.886;2022-12-29T10:24:55;99907.44;;;8.89;100.00
76547;BME280;65390;53.014;8.886;2022-12-29T10:27:23;99868.22;;;8.65;100.00
76547;BME280;65390;53.014;8.886;2022-12-29T10:29:59;99894.06;;;8.65;100.00
76547;BME280;65390;53.014;8.886;2022-12-29T10:32:44;99903.66;;;8.67;100.00
76547;BME280;65390;53.014;8.886;2022-12-29T10:35:33;99901.00;;;8.91;100.00
76547;BME280;65390;53.014;8.886;2022-12-29T10:40:55;99911.59;;;9.41;100.00
76547;BME280;65390;53.014;8.886;2022-12-29T10:43:36;99920.78;;;9.60;100.00
76547;BME280;65390;53.014;8.886;2022-12-29T10:46:10;99910.75;;;9.51;100.00
76547;BME280;65390;53.014;8.886;2022-12-29T10:48:38;99919.72;;;9.39;100.00
76547;BME280;65390;53.014;8.886;2022-12-29T10:51:07;99902.63;;;9.18;100.00
76547;BME280;65390;53.014;8.886;2022-12-29T10:53:49;99935.44;;;9.44;100.00
76547;BME280;65390;53.014;8.886;2022-12-29T10:56:39;99897.28;;;9.18;100.00
76547;BME280;65390;53.014;8.886;2022-12-29T11:07:41;99893.91;;;9.27;100.00
76547;BME280;65390;53.014;8.886;2022-12-29T11:13:14;99923.28;;;9.86;100.00
76547;BME280;65390;53.014;8.886;2022-12-29T11:15:45;99909.56;;;9.90;100.00
76547;BME280;65390;53.014;8.886;2022-12-29T11:18:30;99938.56;;;10.08;100.00
76547;BME280;65390;53.014;8.886;2022-12-29T11:24:23;99871.69;;;9.84;100.00
76547;BME280;65390;53.014;8.886;2022-12-29T11:27:20;99898.00;;;10.01;100.00
76547;BME280;65390;53.014;8.886;2022-12-29T11:29:58;99927.47;;;10.12;100.00
76547;BME280;65390;53.014;8.886;2022-12-29T11:32:26;99873.53;;;9.83;100.00
76547;BME280;65390;53.014;8.886;2022-12-29T11:34:56;99911.41;;;10.12;100.00
76547;BME280;65390;53.014;8.886;2022-12-29T11:37:44;99916.16;;;10.20;100.00
76547;BME280;65390;53.014;8.886;2022-12-29T11:40:38;99903.63;;;10.09;100.00
76547;BME280;65390;53.014;8.886;2022-12-29T11:43:21;99884.88;;;9.98;100.00
76547;BME280;65390;53.014;8.886;2022-12-29T11:45:52;99888.75;;;9.94;99.89
76547;BME280;65390;53.014;8.886;2022-12-29T11:48:21;99913.97;;;10.14;99.45
76547;BME280;65390;53.014;8.886;2022-12-29T11:51:26;99911.66;;;10.09;99.50
76547;BME280;65390;53.014;8.886;2022-12-29T11:54:31;99906.31;;;10.09;99.88
76547;BME280;65390;53.014;8.886;2022-12-29T11:57:13;99889.63;;;9.94;98.85
76547;BME280;65390;53.014;8.886;2022-12-29T12:00:14;99921.28;;;10.12;99.10
76547;BME280;65390;53.014;8.886;2022-12-29T12:02:58;99909.84;;;10.10;98.04
76547;BME280;65390;53.014;8.886;2022-12-29T12:05:31;99932.34;;;10.18;97.87
76547;BME280;65390;53.014;8.886;2022-12-29T12:08:41;99943.69;;;10.22;99.17
76547;BME280;65390;53.014;8.886;2022-12-29T12:11:21;99916.97;;;9.98;99.96
76547;BME280;65390;53.014;8.886;2022-12-29T12:16:50;99896.97;;;9.68;100.00
76547;BME280;65390;53.014;8.886;2022-12-29T12:22:37;99947.28;;;9.98;100.00
76547;BME280;65390;53.014;8.886;2022-12-29T12:25:29;99925.00;;;9.98;100.00
76547;BME280;65390;53.014;8.886;2022-12-29T12:31:01;99959.97;;;10.08;99.82
76547;BME280;65390;53.014;8.886;2022-12-29T12:33:46;99947.88;;;10.02;100.00
76547;BME280;65390;53.014;8.886;2022-12-29T13:00:25;99984.09;;;9.84;100.00
76547;BME280;65390;53.014;8.886;2022-12-29T13:03:03;99982.28;;;9.84;100.00
76547;BME280;65390;53.014;8.886;2022-12-29T13:12:02;100013.75;;;9.69;100.00
76547;BME280;65390;53.014;8.886;2022-12-29T13:20:18;100033.03;;;9.62;100.00
76547;BME280;65390;53.014;8.886;2022-12-29T13:37:34;100059.22;;;9.33;100.00
76547;BME280;65390;53.014;8.886;2022-12-29T13:40:13;100044.81;;;9.23;100.00
76547;BME280;65390;53.014;8.886;2022-12-29T13:42:44;100071.31;;;9.26;100.00
76547;BME280;65390;53.014;8.886;2022-12-29T13:45:26;100088.00;;;9.29;100.00
76547;BME280;65390;53.014;8.886;2022-12-29T13:48:10;100096.69;;;9.20;100.00
76547;BME280;65390;53.014;8.886;2022-12-29T13:51:09;100101.41;;;9.17;100.00
76547;BME280;65390;53.014;8.886;2022-12-29T13:54:04;100101.09;;;9.08;100.00
76547;BME280;65390;53.014;8.886;2022-12-29T13:59:40;100115.75;;;9.03;100.00
76547;BME280;65390;53.014;8.886;2022-12-29T14:02:19;100126.97;;;9.08;100.00
76547;BME280;65390;53.014;8.886;2022-12-29T14:05:00;100129.00;;;9.17;100.00
76547;BME280;65390;53.014;8.886;2022-12-29T14:07:36;100132.94;;;9.24;100.00
76547;BME280;65390;53.014;8.886;2022-12-29T14:10:03;100102.78;;;9.09;100.00
76547;BME280;65390;53.014;8.886;2022-12-29T14:12:36;100095.22;;;9.16;100.00
76547;BME280;65390;53.014;8.886;2022-12-29T14:15:27;100122.34;;;9.23;100.00
76547;BME280;65390;53.014;8.886;2022-12-29T14:18:23;100119.91;;;9.07;100.00
76547;BME280;65390;53.014;8.886;2022-12-29T14:21:04;100146.06;;;9.15;100.00
76547;BME280;65390;53.014;8.886;2022-12-29T14:23:51;100139.81;;;9.03;100.00
76547;BME280;65390;53.014;8.886;2022-12-29T14:29:16;100143.84;;;8.96;100.00
76547;BME280;65390;53.014;8.886;2022-12-29T14:31:44;100151.44;;;8.89;100.00
76547;BME280;65390;53.014;8.886;2022-12-29T14:36:59;100162.56;;;8.83;100.00
76547;BME280;65390;53.014;8.886;2022-12-29T14:50:18;100172.50;;;8.81;100.00
76547;BME280;65390;53.014;8.886;2022-12-29T14:52:55;100189.91;;;8.87;100.00
76547;BME280;65390;53.014;8.886;2022-12-29T14:55:46;100193.44;;;8.87;100.00
76547;BME280;65390;53.014;8.886;2022-12-29T14:58:28;100188.94;;;8.75;100.00
76547;BME280;65390;53.014;8.886;2022-12-29T15:00:58;100196.34;;;8.84;100.00
76547;BME280;65390;53.014;8.886;2022-12-29T15:03:38;100214.81;;;8.87;100.00
76547;BME280;65390;53.014;8.886;2022-12-29T15:06:10;100185.00;;;8.81;100.00
76547;BME280;65390;53.014;8.886;2022-12-29T15:11:54;100226.16;;;8.91;100.00
76547;BME280;65390;53.014;8.886;2022-12-29T15:14:36;100221.44;;;8.94;100.00
76547;BME280;65390;53.014;8.886;2022-12-29T15:17:22;100215.44;;;8.78;100.00
76547;BME280;65390;53.014;8.886;2022-12-29T15:20:14;100222.50;;;8.79;100.00
76547;BME280;65390;53.014;8.886;2022-12-29T15:23:09;100204.09;;;8.62;100.00
76547;BME280;65390;53.014;8.886;2022-12-29T15:26:04;100236.69;;;8.79;100.00
76547;BME280;65390;53.014;8.886;2022-12-29T15:28:59;100212.28;;;8.59;100.00
76547;BME280;65390;53.014;8.886;2022-12-29T15:31:29;100231.03;;;8.71;100.00
76547;BME280;65390;53.014;8.886;2022-12-29T15:34:23;100249.09;;;8.68;100.00
76547;BME280;65390;53.014;8.886;2022-12-29T15:37:32;100259.47;;;8.72;100.00
76547;BME280;65390;53.014;8.886;2022-12-29T15:40:03;100252.94;;;8.64;100.00
76547;BME280;65390;53.014;8.886;2022-12-29T15:43:04;100259.94;;;8.52;100.00
76547;BME280;65390;53.014;8.886;2022-12-29T15:45:47;100261.19;;;8.46;100.00
76547;BME280;65390;53.014;8.886;2022-12-29T15:48:25;100226.97;;;8.39;100.00